sensor_id;sensor_type;location;lat;lon;timestamp;P1;durP1;ratioP1;P2;durP2;ratioP2
438;SDS011;206;48.782;9.252;2022-11-15T00:01:35;17.27;;;12.30;;
438;SDS011;206;48.782;9.252;2022-11-15T00:04:04;23.77;;;14.20;;
438;SDS011;206;48.782;9.252;2022-11-15T00:06:29;16.23;;;13.03;;
438;SDS011;206;48.782;9.252;2022-11-15T00:08:57;14.33;;;11.47;;
438;SDS011;206;48.782;9.252;2022-11-15T00:11:23;23.97;;;12.90;;
438;SDS011;206;48.782;9.252;2022-11-15T00:13:49;16.50;;;11.27;;
438;SDS011;206;48.782;9.252;2022-11-15T00:16:15;23.87;;;12.23;;
438;SDS011;206;48.782;9.252;2022-11-15T00:18:41;16.00;;;13.60;;
438;SDS011;206;48.782;9.252;2022-11-15T00:21:07;15.47;;;11.23;;
438;SDS011;206;48.782;9.252;2022-11-15T00:23:35;20.23;;;12.90;;
438;SDS011;206;48.782;9.252;2022-11-15T00:26:02;17.47;;;12.50;;
438;SDS011;206;48.782;9.252;2022-11-15T00:28:28;14.37;;;12.13;;
438;SDS011;206;48.782;9.252;2022-11-15T00:30:59;19.20;;;13.43;;
438;SDS011;206;48.782;9.252;2022-11-15T00:33:28;22.57;;;14.30;;
438;SDS011;206;48.782;9.252;2022-11-15T00:35:58;16.43;;;12.63;;
438;SDS011;206;48.782;9.252;2022-11-15T00:38:25;16.80;;;12.43;;
438;SDS011;206;48.782;9.252;2022-11-15T00:40:50;17.67;;;13.50;;
438;SDS011;206;48.782;9.252;2022-11-15T00:43:16;20.33;;;14.07;;
438;SDS011;206;48.782;9.252;2022-11-15T00:45:41;15.67;;;13.20;;
438;SDS011;206;48.782;9.252;2022-11-15T00:48:08;20.47;;;11.73;;
438;SDS011;206;48.782;9.252;2022-11-15T00:50:34;15.47;;;12.60;;
438;SDS011;206;48.782;9.252;2022-11-15T00:53:00;13.20;;;12.03;;
438;SDS011;206;48.782;9.252;2022-11-15T00:55:25;16.10;;;12.70;;
438;SDS011;206;48.782;9.252;2022-11-15T00:57:51;18.00;;;12.30;;
438;SDS011;206;48.782;9.252;2022-11-15T01:00:16;18.37;;;12.47;;
438;SDS011;206;48.782;9.252;2022-11-15T01:02:42;19.10;;;11.87;;
438;SDS011;206;48.782;9.252;2022-11-15T01:05:08;14.60;;;12.50;;
438;SDS011;206;48.782;9.252;2022-11-15T01:07:33;20.03;;;12.83;;
438;SDS011;206;48.782;9.252;2022-11-15T01:09:59;15.97;;;13.20;;
438;SDS011;206;48.782;9.252;2022-11-15T01:12:24;18.47;;;13.00;;
438;SDS011;206;48.782;9.252;2022-11-15T01:14:50;16.17;;;13.10;;
438;SDS011;206;48.782;9.252;2022-11-15T01:17:16;18.37;;;11.50;;
438;SDS011;206;48.782;9.252;2022-11-15T01:19:41;15.23;;;11.43;;
438;SDS011;206;48.782;9.252;2022-11-15T01:22:07;18.53;;;10.40;;
438;SDS011;206;48.782;9.252;2022-11-15T01:24:32;15.80;;;11.30;;
438;SDS011;206;48.782;9.252;2022-11-15T01:26:58;24.83;;;12.93;;
438;SDS011;206;48.782;9.252;2022-11-15T01:29:24;15.33;;;11.83;;
438;SDS011;206;48.782;9.252;2022-11-15T01:31:49;13.93;;;10.40;;
438;SDS011;206;48.782;9.252;2022-11-15T01:34:15;13.40;;;11.27;;
438;SDS011;206;48.782;9.252;2022-11-15T01:36:40;16.10;;;12.10;;
438;SDS011;206;48.782;9.252;2022-11-15T01:39:06;16.23;;;10.43;;
438;SDS011;206;48.782;9.252;2022-11-15T01:41:33;15.07;;;11.10;;
438;SDS011;206;48.782;9.252;2022-11-15T01:47:02;13.40;;;11.03;;
438;SDS011;206;48.782;9.252;2022-11-15T01:49:32;24.30;;;12.17;;
438;SDS011;206;48.782;9.252;2022-11-15T01:52:00;11.00;;;10.40;;
438;SDS011;206;48.782;9.252;2022-11-15T01:54:28;15.40;;;10.93;;
438;SDS011;206;48.782;9.252;2022-11-15T01:56:56;19.80;;;11.27;;
438;SDS011;206;48.782;9.252;2022-11-15T01:59:28;26.93;;;11.37;;
438;SDS011;206;48.782;9.252;2022-11-15T02:01:54;11.03;;;9.90;;
438;SDS011;206;48.782;9.252;2022-11-15T02:04:24;10.73;;;8.83;;
438;SDS011;206;48.782;9.252;2022-11-15T02:06:52;14.20;;;9.73;;
438;SDS011;206;48.782;9.252;2022-11-15T02:09:18;14.17;;;10.77;;
438;SDS011;206;48.782;9.252;2022-11-15T02:11:44;14.03;;;10.23;;
438;SDS011;206;48.782;9.252;2022-11-15T02:14:11;21.53;;;10.27;;
438;SDS011;206;48.782;9.252;2022-11-15T02:16:45;13.57;;;11.07;;
438;SDS011;206;48.782;9.252;2022-11-15T02:22:10;18.77;;;10.13;;
438;SDS011;206;48.782;9.252;2022-11-15T02:25:03;18.00;;;11.60;;
438;SDS011;206;48.782;9.252;2022-11-15T02:33:14;22.73;;;13.67;;
438;SDS011;206;48.782;9.252;2022-11-15T02:36:11;20.73;;;14.20;;
438;SDS011;206;48.782;9.252;2022-11-15T02:38:54;22.57;;;14.57;;
438;SDS011;206;48.782;9.252;2022-11-15T02:41:30;16.33;;;12.10;;
438;SDS011;206;48.782;9.252;2022-11-15T02:44:23;20.83;;;14.37;;
438;SDS011;206;48.782;9.252;2022-11-15T02:46:58;20.10;;;15.27;;
438;SDS011;206;48.782;9.252;2022-11-15T02:49:48;19.07;;;13.00;;
438;SDS011;206;48.782;9.252;2022-11-15T02:52:23;18.97;;;13.67;;
438;SDS011;206;48.782;9.252;2022-11-15T02:54:58;15.67;;;13.50;;
438;SDS011;206;48.782;9.252;2022-11-15T03:00:18;15.90;;;11.50;;
438;SDS011;206;48.782;9.252;2022-11-15T03:02:52;19.83;;;14.33;;
438;SDS011;206;48.782;9.252;2022-11-15T03:05:34;19.60;;;14.60;;
438;SDS011;206;48.782;9.252;2022-11-15T03:08:29;17.77;;;14.13;;
438;SDS011;206;48.782;9.252;2022-11-15T03:16:36;15.73;;;12.57;;
438;SDS011;206;48.782;9.252;2022-11-15T03:21:30;19.43;;;10.63;;
438;SDS011;206;48.782;9.252;2022-11-15T03:23:58;23.97;;;13.33;;
438;SDS011;206;48.782;9.252;2022-11-15T03:26:28;14.93;;;13.30;;
438;SDS011;206;48.782;9.252;2022-11-15T03:28:55;15.67;;;11.87;;
438;SDS011;206;48.782;9.252;2022-11-15T03:31:26;16.33;;;12.93;;
438;SDS011;206;48.782;9.252;2022-11-15T03:34:12;17.93;;;12.90;;
438;SDS011;206;48.782;9.252;2022-11-15T03:36:50;16.60;;;12.73;;
438;SDS011;206;48.782;9.252;2022-11-15T03:39:17;19.50;;;13.00;;
438;SDS011;206;48.782;9.252;2022-11-15T03:41:47;16.60;;;12.70;;
438;SDS011;206;48.782;9.252;2022-11-15T03:44:36;17.20;;;13.07;;
438;SDS011;206;48.782;9.252;2022-11-15T03:47:21;17.03;;;12.23;;
438;SDS011;206;48.782;9.252;2022-11-15T03:50:07;14.87;;;11.33;;
438;SDS011;206;48.782;9.252;2022-11-15T03:52:38;18.17;;;10.10;;
438;SDS011;206;48.782;9.252;2022-11-15T03:55:06;20.63;;;14.10;;
438;SDS011;206;48.782;9.252;2022-11-15T03:57:33;18.00;;;11.73;;
438;SDS011;206;48.782;9.252;2022-11-15T03:59:59;15.50;;;11.77;;
438;SDS011;206;48.782;9.252;2022-11-15T04:02:24;14.50;;;11.43;;
438;SDS011;206;48.782;9.252;2022-11-15T04:04:50;16.37;;;11.50;;
438;SDS011;206;48.782;9.252;2022-11-15T04:07:15;16.83;;;11.23;;
438;SDS011;206;48.782;9.252;2022-11-15T04:09:41;17.13;;;13.30;;
438;SDS011;206;48.782;9.252;2022-11-15T04:12:25;13.53;;;12.20;;
438;SDS011;206;48.782;9.252;2022-11-15T04:15:06;16.97;;;12.37;;
438;SDS011;206;48.782;9.252;2022-11-15T04:17:34;15.50;;;12.70;;
438;SDS011;206;48.782;9.252;2022-11-15T04:20:00;15.50;;;13.00;;
438;SDS011;206;48.782;9.252;2022-11-15T04:22:46;16.33;;;12.60;;
438;SDS011;206;48.782;9.252;2022-11-15T04:25:30;16.60;;;12.17;;
438;SDS011;206;48.782;9.252;2022-11-15T04:27:55;13.70;;;11.13;;
438;SDS011;206;48.782;9.252;2022-11-15T04:30:21;12.53;;;11.40;;
438;SDS011;206;48.782;9.252;2022-11-15T04:32:46;13.80;;;11.20;;
438;SDS011;206;48.782;9.252;2022-11-15T04:35:12;14.90;;;11.57;;
438;SDS011;206;48.782;9.252;2022-11-15T04:37:37;14.30;;;11.23;;
438;SDS011;206;48.782;9.252;2022-11-15T04:40:03;19.20;;;12.90;;
438;SDS011;206;48.782;9.252;2022-11-15T04:42:29;15.40;;;12.53;;
438;SDS011;206;48.782;9.252;2022-11-15T04:44:54;16.30;;;11.83;;
438;SDS011;206;48.782;9.252;2022-11-15T04:47:20;18.33;;;12.80;;
438;SDS011;206;48.782;9.252;2022-11-15T04:49:46;17.33;;;12.83;;
438;SDS011;206;48.782;9.252;2022-11-15T04:52:12;13.57;;;12.17;;
438;SDS011;206;48.782;9.252;2022-11-15T04:54:37;14.77;;;11.40;;
438;SDS011;206;48.782;9.252;2022-11-15T04:57:03;15.87;;;12.13;;
438;SDS011;206;48.782;9.252;2022-11-15T04:59:28;18.97;;;12.20;;
438;SDS011;206;48.782;9.252;2022-11-15T05:01:54;14.47;;;13.80;;
438;SDS011;206;48.782;9.252;2022-11-15T05:04:19;17.53;;;14.90;;
438;SDS011;206;48.782;9.252;2022-11-15T05:06:46;24.07;;;14.70;;
438;SDS011;206;48.782;9.252;2022-11-15T05:09:12;18.80;;;14.50;;
438;SDS011;206;48.782;9.252;2022-11-15T05:11:38;23.20;;;14.20;;
438;SDS011;206;48.782;9.252;2022-11-15T05:14:04;20.30;;;15.00;;
438;SDS011;206;48.782;9.252;2022-11-15T05:16:30;18.40;;;13.87;;
438;SDS011;206;48.782;9.252;2022-11-15T05:18:55;18.70;;;14.30;;
438;SDS011;206;48.782;9.252;2022-11-15T05:21:21;13.57;;;12.77;;
438;SDS011;206;48.782;9.252;2022-11-15T05:23:47;15.40;;;11.90;;
438;SDS011;206;48.782;9.252;2022-11-15T05:26:13;19.27;;;12.57;;
438;SDS011;206;48.782;9.252;2022-11-15T05:28:41;20.07;;;12.47;;
438;SDS011;206;48.782;9.252;2022-11-15T05:31:10;18.37;;;14.13;;
438;SDS011;206;48.782;9.252;2022-11-15T05:33:38;23.43;;;14.50;;
438;SDS011;206;48.782;9.252;2022-11-15T05:36:16;22.23;;;14.47;;
438;SDS011;206;48.782;9.252;2022-11-15T05:38:57;23.30;;;14.00;;
438;SDS011;206;48.782;9.252;2022-11-15T05:41:27;19.27;;;12.97;;
438;SDS011;206;48.782;9.252;2022-11-15T05:44:02;14.63;;;11.47;;
438;SDS011;206;48.782;9.252;2022-11-15T05:46:32;14.83;;;12.03;;
438;SDS011;206;48.782;9.252;2022-11-15T05:48:59;16.00;;;11.50;;
438;SDS011;206;48.782;9.252;2022-11-15T05:51:25;12.87;;;11.73;;
438;SDS011;206;48.782;9.252;2022-11-15T05:53:54;17.57;;;11.63;;
438;SDS011;206;48.782;9.252;2022-11-15T05:56:21;14.10;;;10.17;;
438;SDS011;206;48.782;9.252;2022-11-15T05:58:47;22.03;;;13.23;;
438;SDS011;206;48.782;9.252;2022-11-15T06:01:13;16.63;;;11.83;;
438;SDS011;206;48.782;9.252;2022-11-15T06:03:39;15.40;;;12.40;;
438;SDS011;206;48.782;9.252;2022-11-15T06:06:04;15.00;;;11.83;;
438;SDS011;206;48.782;9.252;2022-11-15T06:08:30;17.60;;;11.60;;
438;SDS011;206;48.782;9.252;2022-11-15T06:10:56;12.97;;;12.27;;
438;SDS011;206;48.782;9.252;2022-11-15T06:13:21;14.00;;;10.60;;
438;SDS011;206;48.782;9.252;2022-11-15T06:15:47;12.30;;;10.90;;
438;SDS011;206;48.782;9.252;2022-11-15T06:18:12;12.97;;;10.57;;
438;SDS011;206;48.782;9.252;2022-11-15T06:20:38;12.80;;;11.00;;
438;SDS011;206;48.782;9.252;2022-11-15T06:23:03;11.80;;;9.63;;
438;SDS011;206;48.782;9.252;2022-11-15T06:25:30;13.10;;;10.57;;
438;SDS011;206;48.782;9.252;2022-11-15T06:27:56;9.90;;;8.17;;
438;SDS011;206;48.782;9.252;2022-11-15T06:30:24;14.73;;;11.47;;
438;SDS011;206;48.782;9.252;2022-11-15T06:32:50;9.27;;;8.77;;
438;SDS011;206;48.782;9.252;2022-11-15T06:35:16;11.53;;;9.80;;
438;SDS011;206;48.782;9.252;2022-11-15T06:37:42;11.07;;;8.07;;
438;SDS011;206;48.782;9.252;2022-11-15T06:40:08;11.90;;;9.43;;
438;SDS011;206;48.782;9.252;2022-11-15T06:42:34;10.03;;;8.40;;
438;SDS011;206;48.782;9.252;2022-11-15T06:45:00;18.47;;;9.47;;
438;SDS011;206;48.782;9.252;2022-11-15T06:47:26;13.80;;;9.17;;
438;SDS011;206;48.782;9.252;2022-11-15T06:49:51;11.63;;;10.37;;
438;SDS011;206;48.782;9.252;2022-11-15T06:52:17;12.90;;;10.73;;
438;SDS011;206;48.782;9.252;2022-11-15T06:54:44;13.80;;;10.83;;
438;SDS011;206;48.782;9.252;2022-11-15T06:57:10;13.03;;;8.80;;
438;SDS011;206;48.782;9.252;2022-11-15T06:59:36;16.80;;;10.77;;
438;SDS011;206;48.782;9.252;2022-11-15T07:02:02;11.87;;;9.77;;
438;SDS011;206;48.782;9.252;2022-11-15T07:04:28;14.80;;;9.90;;
438;SDS011;206;48.782;9.252;2022-11-15T07:06:53;13.57;;;9.90;;
438;SDS011;206;48.782;9.252;2022-11-15T07:09:19;14.13;;;10.80;;
438;SDS011;206;48.782;9.252;2022-11-15T07:11:44;11.30;;;9.10;;
438;SDS011;206;48.782;9.252;2022-11-15T07:14:10;18.30;;;12.10;;
438;SDS011;206;48.782;9.252;2022-11-15T07:16:36;12.30;;;8.83;;
438;SDS011;206;48.782;9.252;2022-11-15T07:19:02;8.50;;;8.07;;
438;SDS011;206;48.782;9.252;2022-11-15T07:21:27;10.00;;;6.43;;
438;SDS011;206;48.782;9.252;2022-11-15T07:23:53;10.13;;;7.80;;
438;SDS011;206;48.782;9.252;2022-11-15T07:26:19;9.10;;;8.03;;
438;SDS011;206;48.782;9.252;2022-11-15T07:28:44;9.23;;;7.47;;
438;SDS011;206;48.782;9.252;2022-11-15T07:31:10;10.03;;;8.37;;
438;SDS011;206;48.782;9.252;2022-11-15T07:33:36;13.17;;;9.07;;
438;SDS011;206;48.782;9.252;2022-11-15T07:36:02;10.93;;;8.20;;
438;SDS011;206;48.782;9.252;2022-11-15T07:38:30;14.17;;;8.77;;
438;SDS011;206;48.782;9.252;2022-11-15T07:41:00;10.40;;;8.40;;
438;SDS011;206;48.782;9.252;2022-11-15T07:43:28;9.63;;;8.40;;
438;SDS011;206;48.782;9.252;2022-11-15T07:45:54;9.57;;;8.00;;
438;SDS011;206;48.782;9.252;2022-11-15T07:48:20;10.30;;;7.50;;
438;SDS011;206;48.782;9.252;2022-11-15T07:50:46;8.60;;;7.30;;
438;SDS011;206;48.782;9.252;2022-11-15T07:53:12;8.23;;;7.30;;
438;SDS011;206;48.782;9.252;2022-11-15T07:55:39;10.70;;;7.20;;
438;SDS011;206;48.782;9.252;2022-11-15T07:58:07;13.07;;;8.97;;
438;SDS011;206;48.782;9.252;2022-11-15T08:00:34;10.43;;;7.80;;
438;SDS011;206;48.782;9.252;2022-11-15T08:03:04;9.70;;;8.33;;
438;SDS011;206;48.782;9.252;2022-11-15T08:05:29;10.63;;;7.07;;
438;SDS011;206;48.782;9.252;2022-11-15T08:07:55;7.70;;;7.33;;
438;SDS011;206;48.782;9.252;2022-11-15T08:10:21;9.17;;;7.73;;
438;SDS011;206;48.782;9.252;2022-11-15T08:12:47;9.50;;;8.00;;
438;SDS011;206;48.782;9.252;2022-11-15T08:15:13;8.87;;;7.83;;
438;SDS011;206;48.782;9.252;2022-11-15T08:17:39;10.10;;;8.60;;
438;SDS011;206;48.782;9.252;2022-11-15T08:20:05;13.00;;;8.30;;
438;SDS011;206;48.782;9.252;2022-11-15T08:22:31;14.77;;;8.63;;
438;SDS011;206;48.782;9.252;2022-11-15T08:24:58;11.00;;;7.90;;
438;SDS011;206;48.782;9.252;2022-11-15T08:27:23;11.07;;;7.40;;
438;SDS011;206;48.782;9.252;2022-11-15T08:29:50;10.47;;;7.37;;
438;SDS011;206;48.782;9.252;2022-11-15T08:32:15;10.10;;;8.90;;
438;SDS011;206;48.782;9.252;2022-11-15T08:34:42;11.33;;;6.70;;
438;SDS011;206;48.782;9.252;2022-11-15T08:37:08;7.83;;;6.10;;
438;SDS011;206;48.782;9.252;2022-11-15T08:39:33;7.50;;;6.63;;
438;SDS011;206;48.782;9.252;2022-11-15T08:41:59;11.13;;;7.30;;
438;SDS011;206;48.782;9.252;2022-11-15T08:44:25;11.70;;;7.37;;
438;SDS011;206;48.782;9.252;2022-11-15T08:46:50;9.20;;;6.10;;
438;SDS011;206;48.782;9.252;2022-11-15T08:49:16;16.33;;;7.20;;
438;SDS011;206;48.782;9.252;2022-11-15T08:51:41;9.80;;;7.23;;
438;SDS011;206;48.782;9.252;2022-11-15T08:54:07;8.67;;;7.33;;
438;SDS011;206;48.782;9.252;2022-11-15T08:56:32;10.40;;;7.13;;
438;SDS011;206;48.782;9.252;2022-11-15T08:58:58;11.53;;;6.83;;
438;SDS011;206;48.782;9.252;2022-11-15T09:01:24;6.77;;;6.37;;
438;SDS011;206;48.782;9.252;2022-11-15T09:03:49;28.60;;;10.00;;
438;SDS011;206;48.782;9.252;2022-11-15T09:06:16;14.80;;;9.20;;
438;SDS011;206;48.782;9.252;2022-11-15T09:08:41;7.33;;;6.13;;
438;SDS011;206;48.782;9.252;2022-11-15T09:11:07;19.67;;;7.77;;
438;SDS011;206;48.782;9.252;2022-11-15T09:13:34;8.87;;;5.73;;
438;SDS011;206;48.782;9.252;2022-11-15T09:16:02;14.73;;;8.47;;
438;SDS011;206;48.782;9.252;2022-11-15T09:18:28;11.47;;;7.23;;
438;SDS011;206;48.782;9.252;2022-11-15T09:20:57;10.07;;;7.80;;
438;SDS011;206;48.782;9.252;2022-11-15T09:23:24;19.53;;;9.23;;
438;SDS011;206;48.782;9.252;2022-11-15T09:25:51;11.93;;;9.07;;
438;SDS011;206;48.782;9.252;2022-11-15T09:28:18;9.87;;;8.80;;
438;SDS011;206;48.782;9.252;2022-11-15T09:30:43;16.93;;;8.47;;
438;SDS011;206;48.782;9.252;2022-11-15T09:33:10;9.63;;;7.03;;
438;SDS011;206;48.782;9.252;2022-11-15T09:35:37;12.43;;;6.87;;
438;SDS011;206;48.782;9.252;2022-11-15T09:38:03;11.27;;;6.60;;
438;SDS011;206;48.782;9.252;2022-11-15T09:40:30;6.53;;;6.13;;
438;SDS011;206;48.782;9.252;2022-11-15T09:49:01;21.10;;;7.17;;
438;SDS011;206;48.782;9.252;2022-11-15T09:51:29;6.70;;;6.10;;
438;SDS011;206;48.782;9.252;2022-11-15T09:56:26;12.30;;;7.70;;
438;SDS011;206;48.782;9.252;2022-11-15T10:04:44;14.30;;;8.83;;
438;SDS011;206;48.782;9.252;2022-11-15T10:07:25;9.07;;;7.80;;
438;SDS011;206;48.782;9.252;2022-11-15T10:12:28;10.37;;;7.97;;
438;SDS011;206;48.782;9.252;2022-11-15T10:15:02;8.80;;;7.30;;
438;SDS011;206;48.782;9.252;2022-11-15T10:20:21;9.53;;;6.63;;
438;SDS011;206;48.782;9.252;2022-11-15T10:22:55;9.23;;;6.30;;
438;SDS011;206;48.782;9.252;2022-11-15T10:25:25;8.77;;;5.83;;
438;SDS011;206;48.782;9.252;2022-11-15T10:30:29;7.40;;;5.17;;
438;SDS011;206;48.782;9.252;2022-11-15T10:32:57;31.17;;;7.33;;
438;SDS011;206;48.782;9.252;2022-11-15T10:35:24;21.27;;;20.17;;
438;SDS011;206;48.782;9.252;2022-11-15T10:38:10;9.40;;;7.77;;
438;SDS011;206;48.782;9.252;2022-11-15T10:40:37;11.20;;;6.20;;
438;SDS011;206;48.782;9.252;2022-11-15T10:45:36;7.60;;;5.80;;
438;SDS011;206;48.782;9.252;2022-11-15T10:50:36;6.60;;;5.30;;
438;SDS011;206;48.782;9.252;2022-11-15T10:53:03;8.77;;;5.67;;
438;SDS011;206;48.782;9.252;2022-11-15T10:55:36;13.50;;;5.40;;
438;SDS011;206;48.782;9.252;2022-11-15T10:58:05;7.20;;;5.43;;
438;SDS011;206;48.782;9.252;2022-11-15T11:00:44;11.77;;;6.50;;
438;SDS011;206;48.782;9.252;2022-11-15T11:06:07;7.20;;;5.77;;
438;SDS011;206;48.782;9.252;2022-11-15T11:08:35;21.73;;;12.90;;
438;SDS011;206;48.782;9.252;2022-11-15T11:11:02;15.97;;;9.80;;
438;SDS011;206;48.782;9.252;2022-11-15T11:13:39;30.37;;;17.90;;
438;SDS011;206;48.782;9.252;2022-11-15T11:18:56;16.87;;;12.10;;
438;SDS011;206;48.782;9.252;2022-11-15T11:24:28;14.30;;;8.90;;
438;SDS011;206;48.782;9.252;2022-11-15T11:30:20;6.60;;;5.20;;
438;SDS011;206;48.782;9.252;2022-11-15T11:41:04;6.47;;;5.40;;
438;SDS011;206;48.782;9.252;2022-11-15T11:43:59;4.20;;;3.83;;
438;SDS011;206;48.782;9.252;2022-11-15T11:50:00;7.40;;;5.70;;
438;SDS011;206;48.782;9.252;2022-11-15T11:52:38;14.40;;;10.30;;
438;SDS011;206;48.782;9.252;2022-11-15T11:55:32;21.50;;;11.50;;
438;SDS011;206;48.782;9.252;2022-11-15T11:58:15;8.03;;;5.67;;
438;SDS011;206;48.782;9.252;2022-11-15T12:01:10;10.10;;;7.50;;
438;SDS011;206;48.782;9.252;2022-11-15T12:14:33;5.63;;;4.23;;
438;SDS011;206;48.782;9.252;2022-11-15T12:17:04;9.70;;;5.27;;
438;SDS011;206;48.782;9.252;2022-11-15T12:19:29;9.73;;;4.10;;
438;SDS011;206;48.782;9.252;2022-11-15T12:21:59;6.47;;;4.70;;
438;SDS011;206;48.782;9.252;2022-11-15T12:27:26;6.80;;;4.33;;
438;SDS011;206;48.782;9.252;2022-11-15T12:30:08;6.43;;;4.57;;
438;SDS011;206;48.782;9.252;2022-11-15T12:33:02;4.90;;;4.03;;
438;SDS011;206;48.782;9.252;2022-11-15T12:35:40;7.80;;;4.50;;
438;SDS011;206;48.782;9.252;2022-11-15T12:38:13;11.70;;;4.30;;
438;SDS011;206;48.782;9.252;2022-11-15T12:41:19;15.17;;;5.90;;
438;SDS011;206;48.782;9.252;2022-11-15T12:43:47;9.83;;;4.77;;
438;SDS011;206;48.782;9.252;2022-11-15T12:59:51;27.23;;;6.20;;
438;SDS011;206;48.782;9.252;2022-11-15T13:02:23;7.03;;;4.10;;
438;SDS011;206;48.782;9.252;2022-11-15T13:05:27;14.90;;;5.90;;
438;SDS011;206;48.782;9.252;2022-11-15T13:22:48;6.80;;;4.70;;
438;SDS011;206;48.782;9.252;2022-11-15T13:28:10;6.30;;;4.70;;
438;SDS011;206;48.782;9.252;2022-11-15T13:30:36;12.33;;;4.73;;
438;SDS011;206;48.782;9.252;2022-11-15T13:33:24;5.77;;;4.57;;
438;SDS011;206;48.782;9.252;2022-11-15T13:35:59;5.50;;;4.57;;
438;SDS011;206;48.782;9.252;2022-11-15T13:38:29;6.20;;;5.17;;
438;SDS011;206;48.782;9.252;2022-11-15T13:40:58;12.30;;;4.57;;
438;SDS011;206;48.782;9.252;2022-11-15T13:43:35;7.50;;;5.30;;
438;SDS011;206;48.782;9.252;2022-11-15T13:46:11;11.57;;;7.60;;
438;SDS011;206;48.782;9.252;2022-11-15T13:48:54;16.33;;;5.03;;
438;SDS011;206;48.782;9.252;2022-11-15T13:54:19;10.20;;;5.77;;
438;SDS011;206;48.782;9.252;2022-11-15T13:56:53;6.23;;;3.73;;
438;SDS011;206;48.782;9.252;2022-11-15T13:59:26;6.03;;;4.20;;
438;SDS011;206;48.782;9.252;2022-11-15T14:01:55;5.20;;;3.83;;
438;SDS011;206;48.782;9.252;2022-11-15T14:04:23;6.80;;;4.17;;
438;SDS011;206;48.782;9.252;2022-11-15T14:06:56;3.57;;;3.43;;
438;SDS011;206;48.782;9.252;2022-11-15T14:09:34;17.43;;;7.33;;
438;SDS011;206;48.782;9.252;2022-11-15T14:14:57;7.20;;;5.60;;
438;SDS011;206;48.782;9.252;2022-11-15T14:17:43;9.33;;;6.37;;
438;SDS011;206;48.782;9.252;2022-11-15T14:23:05;20.20;;;7.67;;
438;SDS011;206;48.782;9.252;2022-11-15T14:25:56;12.70;;;5.83;;
438;SDS011;206;48.782;9.252;2022-11-15T14:30:48;12.63;;;6.73;;
438;SDS011;206;48.782;9.252;2022-11-15T14:33:32;13.53;;;7.07;;
438;SDS011;206;48.782;9.252;2022-11-15T14:36:23;8.50;;;5.90;;
438;SDS011;206;48.782;9.252;2022-11-15T14:38:47;15.73;;;5.60;;
438;SDS011;206;48.782;9.252;2022-11-15T14:41:21;10.27;;;7.00;;
438;SDS011;206;48.782;9.252;2022-11-15T14:43:48;13.00;;;6.10;;
438;SDS011;206;48.782;9.252;2022-11-15T14:46:15;16.50;;;7.00;;
438;SDS011;206;48.782;9.252;2022-11-15T14:48:40;14.83;;;6.67;;
438;SDS011;206;48.782;9.252;2022-11-15T14:51:13;9.50;;;5.90;;
438;SDS011;206;48.782;9.252;2022-11-15T14:53:41;7.43;;;6.07;;
438;SDS011;206;48.782;9.252;2022-11-15T14:56:07;14.97;;;7.03;;
438;SDS011;206;48.782;9.252;2022-11-15T14:58:33;14.10;;;7.37;;
438;SDS011;206;48.782;9.252;2022-11-15T15:00:59;11.50;;;7.10;;
438;SDS011;206;48.782;9.252;2022-11-15T15:03:26;11.50;;;6.27;;
438;SDS011;206;48.782;9.252;2022-11-15T15:05:52;14.97;;;6.17;;
438;SDS011;206;48.782;9.252;2022-11-15T15:08:17;8.77;;;5.83;;
438;SDS011;206;48.782;9.252;2022-11-15T15:10:44;8.63;;;5.27;;
438;SDS011;206;48.782;9.252;2022-11-15T15:13:20;12.90;;;6.70;;
438;SDS011;206;48.782;9.252;2022-11-15T15:15:47;7.63;;;6.90;;
438;SDS011;206;48.782;9.252;2022-11-15T15:18:13;15.23;;;8.17;;
438;SDS011;206;48.782;9.252;2022-11-15T15:20:40;14.83;;;8.93;;
438;SDS011;206;48.782;9.252;2022-11-15T15:23:11;13.80;;;9.10;;
438;SDS011;206;48.782;9.252;2022-11-15T15:25:46;12.37;;;8.30;;
438;SDS011;206;48.782;9.252;2022-11-15T15:28:13;16.23;;;9.37;;
438;SDS011;206;48.782;9.252;2022-11-15T15:30:39;12.60;;;9.40;;
438;SDS011;206;48.782;9.252;2022-11-15T15:33:05;9.83;;;7.60;;
438;SDS011;206;48.782;9.252;2022-11-15T15:35:32;15.17;;;10.40;;
438;SDS011;206;48.782;9.252;2022-11-15T15:37:59;11.90;;;8.50;;
438;SDS011;206;48.782;9.252;2022-11-15T15:40:25;11.60;;;9.10;;
438;SDS011;206;48.782;9.252;2022-11-15T15:42:52;14.00;;;9.43;;
438;SDS011;206;48.782;9.252;2022-11-15T15:45:18;14.10;;;8.53;;
438;SDS011;206;48.782;9.252;2022-11-15T15:47:44;10.40;;;7.80;;
438;SDS011;206;48.782;9.252;2022-11-15T15:50:14;11.67;;;8.00;;
438;SDS011;206;48.782;9.252;2022-11-15T15:52:48;6.50;;;6.03;;
438;SDS011;206;48.782;9.252;2022-11-15T15:55:17;9.33;;;7.50;;
438;SDS011;206;48.782;9.252;2022-11-15T15:57:43;22.60;;;8.43;;
438;SDS011;206;48.782;9.252;2022-11-15T16:00:09;14.27;;;9.27;;
438;SDS011;206;48.782;9.252;2022-11-15T16:02:35;14.90;;;9.37;;
438;SDS011;206;48.782;9.252;2022-11-15T16:05:01;9.57;;;8.70;;
438;SDS011;206;48.782;9.252;2022-11-15T16:07:27;15.10;;;10.30;;
438;SDS011;206;48.782;9.252;2022-11-15T16:09:54;11.03;;;8.73;;
438;SDS011;206;48.782;9.252;2022-11-15T16:12:33;12.03;;;9.27;;
438;SDS011;206;48.782;9.252;2022-11-15T16:14:59;25.10;;;9.90;;
438;SDS011;206;48.782;9.252;2022-11-15T16:17:27;15.53;;;10.07;;
438;SDS011;206;48.782;9.252;2022-11-15T16:19:57;12.87;;;10.77;;
438;SDS011;206;48.782;9.252;2022-11-15T16:22:23;16.90;;;12.57;;
438;SDS011;206;48.782;9.252;2022-11-15T16:24:48;17.37;;;11.50;;
438;SDS011;206;48.782;9.252;2022-11-15T16:27:15;23.40;;;10.63;;
438;SDS011;206;48.782;9.252;2022-11-15T16:29:42;10.77;;;9.43;;
438;SDS011;206;48.782;9.252;2022-11-15T16:32:08;11.63;;;9.80;;
438;SDS011;206;48.782;9.252;2022-11-15T16:34:34;26.33;;;12.10;;
438;SDS011;206;48.782;9.252;2022-11-15T16:37:00;18.87;;;10.73;;
438;SDS011;206;48.782;9.252;2022-11-15T16:39:25;15.90;;;11.03;;
438;SDS011;206;48.782;9.252;2022-11-15T16:41:52;15.00;;;9.80;;
438;SDS011;206;48.782;9.252;2022-11-15T16:44:18;12.40;;;9.63;;
438;SDS011;206;48.782;9.252;2022-11-15T16:46:43;14.60;;;9.67;;
438;SDS011;206;48.782;9.252;2022-11-15T16:49:15;13.93;;;9.30;;
438;SDS011;206;48.782;9.252;2022-11-15T16:51:41;10.87;;;10.27;;
438;SDS011;206;48.782;9.252;2022-11-15T16:54:12;14.37;;;9.80;;
438;SDS011;206;48.782;9.252;2022-11-15T16:56:37;15.57;;;9.30;;
438;SDS011;206;48.782;9.252;2022-11-15T16:59:04;14.27;;;9.87;;
438;SDS011;206;48.782;9.252;2022-11-15T17:01:31;14.67;;;9.40;;
438;SDS011;206;48.782;9.252;2022-11-15T17:04:14;13.93;;;9.83;;
438;SDS011;206;48.782;9.252;2022-11-15T17:06:45;17.60;;;10.93;;
438;SDS011;206;48.782;9.252;2022-11-15T17:09:12;18.02;;;9.68;;
438;SDS011;206;48.782;9.252;2022-11-15T17:11:47;20.60;;;10.17;;
438;SDS011;206;48.782;9.252;2022-11-15T17:14:13;14.63;;;9.50;;
438;SDS011;206;48.782;9.252;2022-11-15T17:16:39;11.67;;;8.07;;
438;SDS011;206;48.782;9.252;2022-11-15T17:19:16;11.03;;;8.00;;
438;SDS011;206;48.782;9.252;2022-11-15T17:21:43;13.00;;;8.40;;
438;SDS011;206;48.782;9.252;2022-11-15T17:24:10;17.53;;;8.03;;
438;SDS011;206;48.782;9.252;2022-11-15T17:26:36;14.17;;;8.93;;
438;SDS011;206;48.782;9.252;2022-11-15T17:29:03;14.10;;;8.73;;
438;SDS011;206;48.782;9.252;2022-11-15T17:31:31;14.37;;;9.57;;
438;SDS011;206;48.782;9.252;2022-11-15T17:33:59;12.07;;;9.27;;
438;SDS011;206;48.782;9.252;2022-11-15T17:36:25;14.57;;;8.60;;
438;SDS011;206;48.782;9.252;2022-11-15T17:38:51;17.77;;;8.23;;
438;SDS011;206;48.782;9.252;2022-11-15T17:41:17;17.10;;;8.30;;
438;SDS011;206;48.782;9.252;2022-11-15T17:43:43;14.27;;;8.00;;
438;SDS011;206;48.782;9.252;2022-11-15T17:46:13;10.37;;;7.80;;
438;SDS011;206;48.782;9.252;2022-11-15T17:48:41;16.70;;;8.33;;
438;SDS011;206;48.782;9.252;2022-11-15T17:51:09;12.23;;;8.10;;